sensor_id;sensor_type;location;lat;lon;timestamp;pressure;altitude;pressure_sealevel;temperature
69704;BMP280;56967;43.538;-5.646;2023-04-03T00:01:27;102439.19;;;13.05
69704;BMP280;56967;43.538;-5.646;2023-04-03T00:03:53;102428.25;;;12.72
69704;BMP280;56967;43.538;-5.646;2023-04-03T00:06:19;102418.59;;;12.79
69704;BMP280;56967;43.538;-5.646;2023-04-03T00:08:44;102409.22;;;12.76
69704;BMP280;56967;43.538;-5.646;2023-04-03T00:11:10;102414.31;;;12.78
69704;BMP280;56967;43.538;-5.646;2023-04-03T00:13:37;102413.66;;;12.76
69704;BMP280;56967;43.538;-5.646;2023-04-03T00:16:03;102412.91;;;12.82
69704;BMP280;56967;43.538;-5.646;2023-04-03T00:18:29;102400.94;;;12.65
69704;BMP280;56967;43.538;-5.646;2023-04-03T00:20:54;102402.03;;;12.70
69704;BMP280;56967;43.538;-5.646;2023-04-03T00:23:20;102395.63;;;12.94
69704;BMP280;56967;43.538;-5.646;2023-04-03T00:25:46;102397.31;;;12.66
69704;BMP280;56967;43.538;-5.646;2023-04-03T00:28:12;102406.78;;;12.75
69704;BMP280;56967;43.538;-5.646;2023-04-03T00:30:37;102401.91;;;12.93
69704;BMP280;56967;43.538;-5.646;2023-04-03T00:33:03;102395.34;;;12.89
69704;BMP280;56967;43.538;-5.646;2023-04-03T00:35:29;102395.91;;;12.84
69704;BMP280;56967;43.538;-5.646;2023-04-03T00:37:55;102377.91;;;12.88
69704;BMP280;56967;43.538;-5.646;2023-04-03T00:40:23;102380.78;;;12.93
69704;BMP280;56967;43.538;-5.646;2023-04-03T00:42:55;102376.59;;;12.99
69704;BMP280;56967;43.538;-5.646;2023-04-03T00:45:35;102374.78;;;12.99
69704;BMP280;56967;43.538;-5.646;2023-04-03T00:48:03;102369.50;;;12.99
69704;BMP280;56967;43.538;-5.646;2023-04-03T00:50:31;102366.94;;;12.91
69704;BMP280;56967;43.538;-5.646;2023-04-03T00:52:57;102361.78;;;12.83
69704;BMP280;56967;43.538;-5.646;2023-04-03T00:55:24;102354.50;;;12.85
69704;BMP280;56967;43.538;-5.646;2023-04-03T00:57:51;102352.50;;;12.87
69704;BMP280;56967;43.538;-5.646;2023-04-03T01:00:19;102340.69;;;12.47
69704;BMP280;56967;43.538;-5.646;2023-04-03T01:02:45;102332.47;;;12.42
69704;BMP280;56967;43.538;-5.646;2023-04-03T01:05:11;102323.47;;;12.37
69704;BMP280;56967;43.538;-5.646;2023-04-03T01:07:38;102319.69;;;12.39
69704;BMP280;56967;43.538;-5.646;2023-04-03T01:10:07;102318.59;;;12.34
69704;BMP280;56967;43.538;-5.646;2023-04-03T01:12:36;102316.38;;;12.37
69704;BMP280;56967;43.538;-5.646;2023-04-03T01:15:09;102307.47;;;12.38
69704;BMP280;56967;43.538;-5.646;2023-04-03T01:17:38;102301.56;;;12.36
69704;BMP280;56967;43.538;-5.646;2023-04-03T01:25:44;102273.03;;;12.40
69704;BMP280;56967;43.538;-5.646;2023-04-03T01:28:54;102272.47;;;12.30
69704;BMP280;56967;43.538;-5.646;2023-04-03T01:31:27;102259.59;;;12.20
69704;BMP280;56967;43.538;-5.646;2023-04-03T01:33:54;102250.16;;;12.11
69704;BMP280;56967;43.538;-5.646;2023-04-03T01:36:23;102241.59;;;12.09
69704;BMP280;56967;43.538;-5.646;2023-04-03T01:38:50;102231.81;;;12.03
69704;BMP280;56967;43.538;-5.646;2023-04-03T01:41:16;102227.91;;;11.99
69704;BMP280;56967;43.538;-5.646;2023-04-03T01:43:43;102228.09;;;11.97
69704;BMP280;56967;43.538;-5.646;2023-04-03T01:46:08;102232.63;;;12.03
69704;BMP280;56967;43.538;-5.646;2023-04-03T01:48:34;102223.81;;;11.96
69704;BMP280;56967;43.538;-5.646;2023-04-03T01:51:00;102222.66;;;11.99
69704;BMP280;56967;43.538;-5.646;2023-04-03T01:53:26;102211.63;;;11.95
69704;BMP280;56967;43.538;-5.646;2023-04-03T01:55:51;102211.34;;;11.90
69704;BMP280;56967;43.538;-5.646;2023-04-03T01:58:17;102207.66;;;11.85
69704;BMP280;56967;43.538;-5.646;2023-04-03T02:00:42;102195.19;;;11.79
69704;BMP280;56967;43.538;-5.646;2023-04-03T02:03:08;102192.44;;;11.72
69704;BMP280;56967;43.538;-5.646;2023-04-03T02:05:33;102197.97;;;12.06
69704;BMP280;56967;43.538;-5.646;2023-04-03T02:07:59;102205.88;;;12.06
69704;BMP280;56967;43.538;-5.646;2023-04-03T02:10:25;102199.34;;;12.02
69704;BMP280;56967;43.538;-5.646;2023-04-03T02:12:50;102187.75;;;11.82
69704;BMP280;56967;43.538;-5.646;2023-04-03T02:15:16;102182.56;;;11.74
69704;BMP280;56967;43.538;-5.646;2023-04-03T02:17:42;102175.59;;;11.67
69704;BMP280;56967;43.538;-5.646;2023-04-03T02:20:08;102160.69;;;11.59
69704;BMP280;56967;43.538;-5.646;2023-04-03T02:22:34;102152.97;;;11.57
69704;BMP280;56967;43.538;-5.646;2023-04-03T02:25:00;102146.53;;;11.60
69704;BMP280;56967;43.538;-5.646;2023-04-03T02:27:26;102138.25;;;11.48
69704;BMP280;56967;43.538;-5.646;2023-04-03T02:29:52;102142.72;;;11.48
69704;BMP280;56967;43.538;-5.646;2023-04-03T02:32:17;102135.63;;;11.48
69704;BMP280;56967;43.538;-5.646;2023-04-03T02:34:43;102126.69;;;11.49
69704;BMP280;56967;43.538;-5.646;2023-04-03T02:37:08;102125.09;;;11.48
69704;BMP280;56967;43.538;-5.646;2023-04-03T02:39:34;102111.66;;;11.43
69704;BMP280;56967;43.538;-5.646;2023-04-03T02:42:00;102102.03;;;11.36
69704;BMP280;56967;43.538;-5.646;2023-04-03T02:44:25;102099.88;;;11.39
69704;BMP280;56967;43.538;-5.646;2023-04-03T02:46:51;102100.03;;;11.38
69704;BMP280;56967;43.538;-5.646;2023-04-03T02:49:18;102090.88;;;11.34
69704;BMP280;56967;43.538;-5.646;2023-04-03T02:51:44;102079.41;;;11.27
69704;BMP280;56967;43.538;-5.646;2023-04-03T02:54:09;102073.72;;;11.23
69704;BMP280;56967;43.538;-5.646;2023-04-03T02:56:35;102073.56;;;11.25
69704;BMP280;56967;43.538;-5.646;2023-04-03T02:59:00;102066.53;;;11.17
69704;BMP280;56967;43.538;-5.646;2023-04-03T03:01:26;102059.00;;;11.14
69704;BMP280;56967;43.538;-5.646;2023-04-03T03:03:54;102050.03;;;11.08
69704;BMP280;56967;43.538;-5.646;2023-04-03T03:06:19;102043.59;;;11.11
69704;BMP280;56967;43.538;-5.646;2023-04-03T03:08:45;102035.59;;;11.04
69704;BMP280;56967;43.538;-5.646;2023-04-03T03:11:11;102027.44;;;10.99
69704;BMP280;56967;43.538;-5.646;2023-04-03T03:13:37;102014.94;;;11.01
69704;BMP280;56967;43.538;-5.646;2023-04-03T03:16:03;102011.03;;;10.97
69704;BMP280;56967;43.538;-5.646;2023-04-03T03:18:29;102001.66;;;10.95
69704;BMP280;56967;43.538;-5.646;2023-04-03T03:20:56;101996.94;;;10.90
69704;BMP280;56967;43.538;-5.646;2023-04-03T03:23:24;101998.13;;;10.88
69704;BMP280;56967;43.538;-5.646;2023-04-03T03:25:58;101992.34;;;10.92
69704;BMP280;56967;43.538;-5.646;2023-04-03T03:28:24;101991.06;;;10.88
69704;BMP280;56967;43.538;-5.646;2023-04-03T03:30:50;101983.16;;;10.74
69704;BMP280;56967;43.538;-5.646;2023-04-03T03:33:16;101963.81;;;10.67
69704;BMP280;56967;43.538;-5.646;2023-04-03T03:35:43;101962.47;;;10.85
69704;BMP280;56967;43.538;-5.646;2023-04-03T03:38:09;101967.03;;;10.77
69704;BMP280;56967;43.538;-5.646;2023-04-03T03:40:34;101966.84;;;10.93
69704;BMP280;56967;43.538;-5.646;2023-04-03T03:43:00;101966.75;;;10.86
69704;BMP280;56967;43.538;-5.646;2023-04-03T03:45:25;101950.44;;;10.62
69704;BMP280;56967;43.538;-5.646;2023-04-03T03:47:51;101934.47;;;10.63
69704;BMP280;56967;43.538;-5.646;2023-04-03T03:50:17;101938.91;;;10.77
69704;BMP280;56967;43.538;-5.646;2023-04-03T03:52:42;101949.53;;;10.84
69704;BMP280;56967;43.538;-5.646;2023-04-03T03:55:08;101950.59;;;10.75
69704;BMP280;56967;43.538;-5.646;2023-04-03T03:57:34;101943.00;;;10.80
69704;BMP280;56967;43.538;-5.646;2023-04-03T04:00:00;101938.75;;;10.79
69704;BMP280;56967;43.538;-5.646;2023-04-03T04:02:25;101930.56;;;10.74
69704;BMP280;56967;43.538;-5.646;2023-04-03T04:04:51;101930.19;;;10.47
69704;BMP280;56967;43.538;-5.646;2023-04-03T04:07:17;101915.13;;;10.41
69704;BMP280;56967;43.538;-5.646;2023-04-03T04:09:42;101896.72;;;10.41
69704;BMP280;56967;43.538;-5.646;2023-04-03T04:12:07;101898.75;;;10.54
69704;BMP280;56967;43.538;-5.646;2023-04-03T04:14:33;101900.81;;;10.59
69704;BMP280;56967;43.538;-5.646;2023-04-03T04:16:58;101896.38;;;10.59
69704;BMP280;56967;43.538;-5.646;2023-04-03T04:19:24;101900.66;;;10.60
69704;BMP280;56967;43.538;-5.646;2023-04-03T04:21:49;101895.09;;;10.55
69704;BMP280;56967;43.538;-5.646;2023-04-03T04:24:15;101896.38;;;10.44
69704;BMP280;56967;43.538;-5.646;2023-04-03T04:26:41;101881.84;;;10.48
69704;BMP280;56967;43.538;-5.646;2023-04-03T04:29:08;101879.22;;;10.48
69704;BMP280;56967;43.538;-5.646;2023-04-03T04:31:33;101867.00;;;10.41
69704;BMP280;56967;43.538;-5.646;2023-04-03T04:33:59;101858.50;;;10.39
69704;BMP280;56967;43.538;-5.646;2023-04-03T04:36:25;101855.88;;;10.39
69704;BMP280;56967;43.538;-5.646;2023-04-03T04:38:50;101851.78;;;10.36
69704;BMP280;56967;43.538;-5.646;2023-04-03T04:41:19;101851.78;;;10.36
69704;BMP280;56967;43.538;-5.646;2023-04-03T04:43:48;101847.78;;;10.26
69704;BMP280;56967;43.538;-5.646;2023-04-03T04:46:13;101844.00;;;10.28
69704;BMP280;56967;43.538;-5.646;2023-04-03T04:48:39;101845.16;;;10.26
69704;BMP280;56967;43.538;-5.646;2023-04-03T04:51:06;101840.91;;;10.25
69704;BMP280;56967;43.538;-5.646;2023-04-03T04:53:31;101841.53;;;10.27
69704;BMP280;56967;43.538;-5.646;2023-04-03T04:55:58;101829.94;;;10.21
69704;BMP280;56967;43.538;-5.646;2023-04-03T04:58:23;101816.06;;;10.13
69704;BMP280;56967;43.538;-5.646;2023-04-03T05:00:49;101803.41;;;10.02
69704;BMP280;56967;43.538;-5.646;2023-04-03T05:03:15;101796.66;;;9.99
69704;BMP280;56967;43.538;-5.646;2023-04-03T05:05:40;101783.38;;;10.01
69704;BMP280;56967;43.538;-5.646;2023-04-03T05:08:06;101784.25;;;9.78
69704;BMP280;56967;43.538;-5.646;2023-04-03T05:10:33;101764.34;;;9.69
69704;BMP280;56967;43.538;-5.646;2023-04-03T05:12:59;101732.00;;;9.69
69704;BMP280;56967;43.538;-5.646;2023-04-03T05:15:24;101727.38;;;9.56
69704;BMP280;56967;43.538;-5.646;2023-04-03T05:17:50;101725.53;;;9.57
69704;BMP280;56967;43.538;-5.646;2023-04-03T05:20:16;101710.06;;;9.47
69704;BMP280;56967;43.538;-5.646;2023-04-03T05:22:41;101689.53;;;9.65
69704;BMP280;56967;43.538;-5.646;2023-04-03T05:25:07;101694.41;;;9.54
69704;BMP280;56967;43.538;-5.646;2023-04-03T05:27:33;101688.31;;;9.53
69704;BMP280;56967;43.538;-5.646;2023-04-03T05:29:59;101693.97;;;9.50
69704;BMP280;56967;43.538;-5.646;2023-04-03T05:32:25;101687.09;;;9.64
69704;BMP280;56967;43.538;-5.646;2023-04-03T05:34:54;101691.56;;;9.78
69704;BMP280;56967;43.538;-5.646;2023-04-03T05:37:19;101697.53;;;9.86
69704;BMP280;56967;43.538;-5.646;2023-04-03T05:39:45;101712.47;;;9.86
69704;BMP280;56967;43.538;-5.646;2023-04-03T05:42:11;101719.50;;;9.85
69704;BMP280;56967;43.538;-5.646;2023-04-03T05:44:37;101716.88;;;9.85
69704;BMP280;56967;43.538;-5.646;2023-04-03T05:47:03;101719.94;;;9.60
69704;BMP280;56967;43.538;-5.646;2023-04-03T05:49:29;101713.47;;;9.48
69704;BMP280;56967;43.538;-5.646;2023-04-03T05:51:54;101704.88;;;9.39
69704;BMP280;56967;43.538;-5.646;2023-04-03T05:54:25;101700.78;;;9.36
69704;BMP280;56967;43.538;-5.646;2023-04-03T05:56:52;101702.03;;;9.26
69704;BMP280;56967;43.538;-5.646;2023-04-03T05:59:18;101693.25;;;9.19
69704;BMP280;56967;43.538;-5.646;2023-04-03T06:01:45;101675.34;;;9.22
69704;BMP280;56967;43.538;-5.646;2023-04-03T06:04:11;101671.38;;;9.26
69704;BMP280;56967;43.538;-5.646;2023-04-03T06:06:53;101662.59;;;9.19
69704;BMP280;56967;43.538;-5.646;2023-04-03T06:09:21;101658.56;;;9.31
69704;BMP280;56967;43.538;-5.646;2023-04-03T06:11:47;101668.91;;;9.91
69704;BMP280;56967;43.538;-5.646;2023-04-03T06:14:12;101697.75;;;10.21
69704;BMP280;56967;43.538;-5.646;2023-04-03T06:16:38;101754.78;;;10.56
69704;BMP280;56967;43.538;-5.646;2023-04-03T06:19:05;101819.53;;;10.93
69704;BMP280;56967;43.538;-5.646;2023-04-03T06:21:32;101845.03;;;11.56
69704;BMP280;56967;43.538;-5.646;2023-04-03T06:23:57;101911.53;;;12.07
69704;BMP280;56967;43.538;-5.646;2023-04-03T06:26:23;101958.47;;;12.87
69704;BMP280;56967;43.538;-5.646;2023-04-03T06:28:48;102005.44;;;13.65
69704;BMP280;56967;43.538;-5.646;2023-04-03T06:31:14;102065.06;;;15.61
69704;BMP280;56967;43.538;-5.646;2023-04-03T06:33:40;102113.19;;;18.64
69704;BMP280;56967;43.538;-5.646;2023-04-03T06:36:06;102155.38;;;20.90
69704;BMP280;56967;43.538;-5.646;2023-04-03T06:38:33;102183.38;;;22.83
69704;BMP280;56967;43.538;-5.646;2023-04-03T06:40:59;102142.72;;;24.50
69704;BMP280;56967;43.538;-5.646;2023-04-03T06:43:25;102207.84;;;24.96
69704;BMP280;56967;43.538;-5.646;2023-04-03T06:45:51;102214.50;;;27.26
69704;BMP280;56967;43.538;-5.646;2023-04-03T06:48:17;102222.00;;;28.02
69704;BMP280;56967;43.538;-5.646;2023-04-03T06:50:42;102222.09;;;29.79
69704;BMP280;56967;43.538;-5.646;2023-04-03T06:53:09;102234.25;;;30.55
69704;BMP280;56967;43.538;-5.646;2023-04-03T06:55:35;102236.44;;;31.50
69704;BMP280;56967;43.538;-5.646;2023-04-03T06:58:01;102235.25;;;32.38
69704;BMP280;56967;43.538;-5.646;2023-04-03T07:00:27;102240.00;;;33.07
69704;BMP280;56967;43.538;-5.646;2023-04-03T07:02:53;102239.38;;;33.34
69704;BMP280;56967;43.538;-5.646;2023-04-03T07:05:19;102237.00;;;34.20
69704;BMP280;56967;43.538;-5.646;2023-04-03T07:07:45;102243.06;;;35.15
69704;BMP280;56967;43.538;-5.646;2023-04-03T07:10:10;102251.56;;;34.67
69704;BMP280;56967;43.538;-5.646;2023-04-03T07:12:37;102246.31;;;36.28
69704;BMP280;56967;43.538;-5.646;2023-04-03T07:15:04;102249.88;;;36.51
69704;BMP280;56967;43.538;-5.646;2023-04-03T07:17:30;102250.94;;;37.67
69704;BMP280;56967;43.538;-5.646;2023-04-03T07:19:56;102252.72;;;39.12
69704;BMP280;56967;43.538;-5.646;2023-04-03T07:22:22;102256.78;;;39.32
69704;BMP280;56967;43.538;-5.646;2023-04-03T07:24:47;102256.31;;;40.34
69704;BMP280;56967;43.538;-5.646;2023-04-03T07:27:13;102263.78;;;40.37
69704;BMP280;56967;43.538;-5.646;2023-04-03T07:29:39;102266.78;;;41.33
69704;BMP280;56967;43.538;-5.646;2023-04-03T07:32:05;102270.69;;;42.11
69704;BMP280;56967;43.538;-5.646;2023-04-03T07:34:32;102273.94;;;41.20
69704;BMP280;56967;43.538;-5.646;2023-04-03T07:36:58;102268.72;;;42.08
69704;BMP280;56967;43.538;-5.646;2023-04-03T07:39:24;102274.72;;;43.18
69704;BMP280;56967;43.538;-5.646;2023-04-03T07:41:50;102275.69;;;45.35
69704;BMP280;56967;43.538;-5.646;2023-04-03T07:44:15;102283.19;;;43.38
69704;BMP280;56967;43.538;-5.646;2023-04-03T07:46:41;102281.34;;;44.92
69704;BMP280;56967;43.538;-5.646;2023-04-03T07:49:07;102288.16;;;46.23
69704;BMP280;56967;43.538;-5.646;2023-04-03T07:51:33;102291.63;;;43.31
69704;BMP280;56967;43.538;-5.646;2023-04-03T07:53:58;102302.06;;;42.83
69704;BMP280;56967;43.538;-5.646;2023-04-03T07:56:24;102307.19;;;43.21
69704;BMP280;56967;43.538;-5.646;2023-04-03T07:58:50;102304.25;;;45.35
69704;BMP280;56967;43.538;-5.646;2023-04-03T08:01:16;102299.47;;;45.36
69704;BMP280;56967;43.538;-5.646;2023-04-03T08:03:41;102295.63;;;42.08
69704;BMP280;56967;43.538;-5.646;2023-04-03T08:06:08;102299.09;;;39.72
69704;BMP280;56967;43.538;-5.646;2023-04-03T08:08:34;102285.78;;;38.62
69704;BMP280;56967;43.538;-5.646;2023-04-03T08:11:01;102302.03;;;40.35
69704;BMP280;56967;43.538;-5.646;2023-04-03T08:13:28;102298.09;;;40.39
69704;BMP280;56967;43.538;-5.646;2023-04-03T08:15:54;102309.69;;;43.42
69704;BMP280;56967;43.538;-5.646;2023-04-03T08:18:22;102311.44;;;43.86
69704;BMP280;56967;43.538;-5.646;2023-04-03T08:20:50;102313.03;;;41.22
69704;BMP280;56967;43.538;-5.646;2023-04-03T08:23:17;102316.25;;;40.68
69704;BMP280;56967;43.538;-5.646;2023-04-03T08:25:43;102323.66;;;39.33
69704;BMP280;56967;43.538;-5.646;2023-04-03T08:28:10;102305.47;;;37.38
69704;BMP280;56967;43.538;-5.646;2023-04-03T08:30:39;102306.84;;;35.19
69704;BMP280;56967;43.538;-5.646;2023-04-03T08:33:05;102310.16;;;34.82
69704;BMP280;56967;43.538;-5.646;2023-04-03T08:35:31;102294.56;;;36.52
69704;BMP280;56967;43.538;-5.646;2023-04-03T08:37:56;102294.84;;;37.96
69704;BMP280;56967;43.538;-5.646;2023-04-03T08:40:22;102295.22;;;37.62
69704;BMP280;56967;43.538;-5.646;2023-04-03T08:42:51;102292.50;;;37.13
69704;BMP280;56967;43.538;-5.646;2023-04-03T08:48:21;102257.88;;;33.28
69704;BMP280;56967;43.538;-5.646;2023-04-03T08:50:53;102229.09;;;33.07
69704;BMP280;56967;43.538;-5.646;2023-04-03T08:53:25;102214.63;;;29.84
69704;BMP280;56967;43.538;-5.646;2023-04-03T08:55:53;102188.66;;;29.13
69704;BMP280;56967;43.538;-5.646;2023-04-03T08:58:22;102183.50;;;29.12
69704;BMP280;56967;43.538;-5.646;2023-04-03T09:00:59;102195.56;;;27.72
69704;BMP280;56967;43.538;-5.646;2023-04-03T09:03:32;102176.81;;;28.16
69704;BMP280;56967;43.538;-5.646;2023-04-03T09:06:31;102172.22;;;25.48
69704;BMP280;56967;43.538;-5.646;2023-04-03T09:09:21;102166.59;;;26.62
69704;BMP280;56967;43.538;-5.646;2023-04-03T09:22:55;102027.66;;;19.34
69704;BMP280;56967;43.538;-5.646;2023-04-03T09:25:27;102040.38;;;19.15
69704;BMP280;56967;43.538;-5.646;2023-04-03T09:27:53;102029.84;;;19.09
69704;BMP280;56967;43.538;-5.646;2023-04-03T09:30:24;102013.16;;;18.45
69704;BMP280;56967;43.538;-5.646;2023-04-03T09:32:52;102031.16;;;18.66
69704;BMP280;56967;43.538;-5.646;2023-04-03T09:35:24;102014.78;;;18.46
69704;BMP280;56967;43.538;-5.646;2023-04-03T09:37:53;102008.25;;;18.54
69704;BMP280;56967;43.538;-5.646;2023-04-03T09:42:52;101988.31;;;17.70
69704;BMP280;56967;43.538;-5.646;2023-04-03T09:45:33;101998.63;;;17.90
69704;BMP280;56967;43.538;-5.646;2023-04-03T09:50:30;101991.16;;;17.34
69704;BMP280;56967;43.538;-5.646;2023-04-03T09:52:56;101972.19;;;17.19
69704;BMP280;56967;43.538;-5.646;2023-04-03T09:55:24;101983.94;;;16.82
69704;BMP280;56967;43.538;-5.646;2023-04-03T09:58:04;101983.47;;;17.56
69704;BMP280;56967;43.538;-5.646;2023-04-03T10:00:31;101983.22;;;17.57
69704;BMP280;56967;43.538;-5.646;2023-04-03T10:02:59;101986.25;;;16.60
69704;BMP280;56967;43.538;-5.646;2023-04-03T10:05:39;101950.94;;;16.89
69704;BMP280;56967;43.538;-5.646;2023-04-03T10:10:42;101975.75;;;16.65
69704;BMP280;56967;43.538;-5.646;2023-04-03T10:13:16;101947.09;;;16.55
69704;BMP280;56967;43.538;-5.646;2023-04-03T10:15:55;101946.47;;;16.72
69704;BMP280;56967;43.538;-5.646;2023-04-03T10:24:29;101919.06;;;16.89
69704;BMP280;56967;43.538;-5.646;2023-04-03T10:29:52;101926.72;;;16.49
69704;BMP280;56967;43.538;-5.646;2023-04-03T10:32:50;101916.09;;;16.49
69704;BMP280;56967;43.538;-5.646;2023-04-03T10:35:39;101914.00;;;16.04
69704;BMP280;56967;43.538;-5.646;2023-04-03T10:38:51;101895.44;;;15.61
69704;BMP280;56967;43.538;-5.646;2023-04-03T10:41:52;101903.94;;;16.24
69704;BMP280;56967;43.538;-5.646;2023-04-03T10:47:24;101886.56;;;15.73
69704;BMP280;56967;43.538;-5.646;2023-04-03T11:01:21;101872.66;;;16.14
69704;BMP280;56967;43.538;-5.646;2023-04-03T11:03:53;101845.56;;;16.12
69704;BMP280;56967;43.538;-5.646;2023-04-03T11:06:25;101902.19;;;15.81
69704;BMP280;56967;43.538;-5.646;2023-04-03T11:09:01;101830.59;;;15.99
69704;BMP280;56967;43.538;-5.646;2023-04-03T11:11:33;101826.06;;;16.18
69704;BMP280;56967;43.538;-5.646;2023-04-03T11:14:10;101851.06;;;15.92
69704;BMP280;56967;43.538;-5.646;2023-04-03T11:16:45;101837.63;;;16.24
69704;BMP280;56967;43.538;-5.646;2023-04-03T11:19:18;101809.81;;;15.78
69704;BMP280;56967;43.538;-5.646;2023-04-03T11:25:14;101854.50;;;15.75
69704;BMP280;56967;43.538;-5.646;2023-04-03T11:27:59;101823.16;;;15.90
69704;BMP280;56967;43.538;-5.646;2023-04-03T11:35:54;101802.16;;;16.07
69704;BMP280;56967;43.538;-5.646;2023-04-03T11:38:30;101792.31;;;15.95
69704;BMP280;56967;43.538;-5.646;2023-04-03T11:41:02;101784.16;;;16.27
69704;BMP280;56967;43.538;-5.646;2023-04-03T11:43:32;101777.41;;;15.94
69704;BMP280;56967;43.538;-5.646;2023-04-03T11:46:03;101780.00;;;16.31
69704;BMP280;56967;43.538;-5.646;2023-04-03T11:50:58;101768.78;;;15.99
69704;BMP280;56967;43.538;-5.646;2023-04-03T11:53:35;101779.44;;;15.92
69704;BMP280;56967;43.538;-5.646;2023-04-03T11:56:47;101777.28;;;15.89
69704;BMP280;56967;43.538;-5.646;2023-04-03T12:01:44;101766.31;;;15.68
69704;BMP280;56967;43.538;-5.646;2023-04-03T12:04:13;101745.88;;;15.86
69704;BMP280;56967;43.538;-5.646;2023-04-03T12:07:24;101749.19;;;16.00
69704;BMP280;56967;43.538;-5.646;2023-04-03T12:12:34;101749.13;;;16.18
69704;BMP280;56967;43.538;-5.646;2023-04-03T12:15:23;101744.44;;;15.90
69704;BMP280;56967;43.538;-5.646;2023-04-03T12:17:50;101732.19;;;15.89
69704;BMP280;56967;43.538;-5.646;2023-04-03T12:26:28;101731.97;;;15.91
69704;BMP280;56967;43.538;-5.646;2023-04-03T12:28:55;101735.03;;;16.06
69704;BMP280;56967;43.538;-5.646;2023-04-03T12:31:24;101718.34;;;16.17
69704;BMP280;56967;43.538;-5.646;2023-04-03T12:36:49;101727.38;;;15.98
69704;BMP280;56967;43.538;-5.646;2023-04-03T12:43:05;101731.75;;;15.74
69704;BMP280;56967;43.538;-5.646;2023-04-03T12:46:22;101743.63;;;15.72
69704;BMP280;56967;43.538;-5.646;2023-04-03T12:48:25;101708.31;;;15.89
69704;BMP280;56967;43.538;-5.646;2023-04-03T12:50:51;101710.13;;;15.77
69704;BMP280;56967;43.538;-5.646;2023-04-03T12:53:41;101704.78;;;15.95
69704;BMP280;56967;43.538;-5.646;2023-04-03T12:56:27;101700.81;;;15.86
69704;BMP280;56967;43.538;-5.646;2023-04-03T12:58:57;101691.13;;;15.62
69704;BMP280;56967;43.538;-5.646;2023-04-03T13:01:37;101717.94;;;15.54
69704;BMP280;56967;43.538;-5.646;2023-04-03T13:04:03;101681.09;;;15.64
69704;BMP280;56967;43.538;-5.646;2023-04-03T13:06:42;101679.56;;;15.57
69704;BMP280;56967;43.538;-5.646;2023-04-03T13:09:26;101674.56;;;15.67
69704;BMP280;56967;43.538;-5.646;2023-04-03T13:12:00;101655.50;;;15.58
69704;BMP280;56967;43.538;-5.646;2023-04-03T13:14:28;101705.63;;;15.60
69704;BMP280;56967;43.538;-5.646;2023-04-03T13:17:09;101649.06;;;15.66
69704;BMP280;56967;43.538;-5.646;2023-04-03T13:19:37;101641.13;;;15.66
69704;BMP280;56967;43.538;-5.646;2023-04-03T13:22:07;101631.59;;;15.47
69704;BMP280;56967;43.538;-5.646;2023-04-03T13:24:36;101665.66;;;15.43
69704;BMP280;56967;43.538;-5.646;2023-04-03T13:27:03;101643.06;;;15.59
69704;BMP280;56967;43.538;-5.646;2023-04-03T13:29:32;101676.34;;;15.37
69704;BMP280;56967;43.538;-5.646;2023-04-03T13:32:00;101620.56;;;15.31
69704;BMP280;56967;43.538;-5.646;2023-04-03T13:34:37;101612.63;;;15.61
69704;BMP280;56967;43.538;-5.646;2023-04-03T13:37:04;101632.28;;;15.72
69704;BMP280;56967;43.538;-5.646;2023-04-03T13:39:35;101622.56;;;15.95
69704;BMP280;56967;43.538;-5.646;2023-04-03T13:42:16;101616.72;;;15.75
69704;BMP280;56967;43.538;-5.646;2023-04-03T13:44:43;101608.25;;;15.85
69704;BMP280;56967;43.538;-5.646;2023-04-03T13:49:42;101608.91;;;15.80
69704;BMP280;56967;43.538;-5.646;2023-04-03T13:52:29;101582.75;;;15.84
69704;BMP280;56967;43.538;-5.646;2023-04-03T13:55:00;101636.50;;;16.02
69704;BMP280;56967;43.538;-5.646;2023-04-03T13:57:27;101580.16;;;15.95
69704;BMP280;56967;43.538;-5.646;2023-04-03T13:59:53;101580.00;;;16.02
69704;BMP280;56967;43.538;-5.646;2023-04-03T14:02:38;101571.38;;;15.95
69704;BMP280;56967;43.538;-5.646;2023-04-03T14:05:04;101586.00;;;15.56
69704;BMP280;56967;43.538;-5.646;2023-04-03T14:07:33;101583.16;;;15.69
69704;BMP280;56967;43.538;-5.646;2023-04-03T14:09:59;101583.34;;;15.86
69704;BMP280;56967;43.538;-5.646;2023-04-03T14:12:31;101573.22;;;15.65
69704;BMP280;56967;43.538;-5.646;2023-04-03T14:15:00;101558.06;;;15.83
69704;BMP280;56967;43.538;-5.646;2023-04-03T14:17:26;101544.81;;;15.72
69704;BMP280;56967;43.538;-5.646;2023-04-03T14:19:54;101567.91;;;15.65
69704;BMP280;56967;43.538;-5.646;2023-04-03T14:22:26;101559.06;;;15.59
69704;BMP280;56967;43.538;-5.646;2023-04-03T14:24:52;101557.91;;;15.55
69704;BMP280;56967;43.538;-5.646;2023-04-03T14:27:22;101557.75;;;15.80
69704;BMP280;56967;43.538;-5.646;2023-04-03T14:29:49;101562.06;;;15.63
69704;BMP280;56967;43.538;-5.646;2023-04-03T14:32:17;101548.56;;;15.53
69704;BMP280;56967;43.538;-5.646;2023-04-03T14:34:43;101534.34;;;15.47
69704;BMP280;56967;43.538;-5.646;2023-04-03T14:37:14;101542.19;;;15.54
69704;BMP280;56967;43.538;-5.646;2023-04-03T14:39:40;101545.94;;;15.64
69704;BMP280;56967;43.538;-5.646;2023-04-03T14:42:12;101536.25;;;15.70
69704;BMP280;56967;43.538;-5.646;2023-04-03T14:44:38;101534.16;;;15.60
69704;BMP280;56967;43.538;-5.646;2023-04-03T14:47:03;101530.72;;;15.60
69704;BMP280;56967;43.538;-5.646;2023-04-03T14:49:29;101536.66;;;15.25
69704;BMP280;56967;43.538;-5.646;2023-04-03T14:51:58;101563.19;;;15.37
69704;BMP280;56967;43.538;-5.646;2023-04-03T14:54:24;101531.38;;;15.25
69704;BMP280;56967;43.538;-5.646;2023-04-03T14:56:55;101570.78;;;15.04
69704;BMP280;56967;43.538;-5.646;2023-04-03T14:59:21;101549.44;;;15.17
69704;BMP280;56967;43.538;-5.646;2023-04-03T15:01:48;101530.88;;;15.35
69704;BMP280;56967;43.538;-5.646;2023-04-03T15:04:18;101547.84;;;15.46
69704;BMP280;56967;43.538;-5.646;2023-04-03T15:06:46;101545.91;;;15.23
69704;BMP280;56967;43.538;-5.646;2023-04-03T15:09:29;101532.16;;;15.44
69704;BMP280;56967;43.538;-5.646;2023-04-03T15:11:55;101555.72;;;15.34
69704;BMP280;56967;43.538;-5.646;2023-04-03T15:14:21;101552.91;;;15.47
69704;BMP280;56967;43.538;-5.646;2023-04-03T15:16:48;101538.34;;;15.38
69704;BMP280;56967;43.538;-5.646;2023-04-03T15:19:14;101569.66;;;14.93